createdAt,value
2019-04-25T00:00:47.276Z,2.75
2019-04-25T00:06:52.010Z,3.83
2019-04-25T00:12:54.429Z,4.28
2019-04-25T00:18:57.274Z,3.27
2019-04-25T00:25:15.239Z,4.80
2019-04-25T00:31:09.042Z,4.87
2019-04-25T00:37:13.711Z,3.12
2019-04-25T00:43:16.540Z,4.05
2019-04-25T00:49:18.977Z,3.52
2019-04-25T00:55:28.528Z,3.80
2019-04-25T01:01:31.656Z,5.58
2019-04-25T01:07:34.471Z,3.45
2019-04-25T01:13:36.861Z,5.35
2019-04-25T01:19:39.197Z,4.67
2019-04-25T01:25:44.292Z,4.90
2019-04-25T01:31:46.612Z,2.40
2019-04-25T01:37:57.301Z,3.27
2019-04-25T01:44:04.693Z,4.42
2019-04-25T01:50:07.693Z,2.90
2019-04-25T01:56:11.044Z,2.30
2019-04-25T02:02:15.333Z,5.33
2019-04-25T02:08:19.850Z,3.47
2019-04-25T02:14:23.697Z,4.12
2019-04-25T02:20:26.265Z,5.10
2019-04-25T02:26:28.624Z,3.30
2019-04-25T02:32:31.094Z,6.67
2019-04-25T02:38:34.228Z,3.27
2019-04-25T02:44:38.663Z,5.60
2019-04-25T02:50:44.085Z,4.62
2019-04-25T02:56:47.341Z,5.30
2019-04-25T03:02:49.797Z,5.92
2019-04-25T03:08:54.323Z,6.67
2019-04-25T03:14:56.289Z,3.40
2019-04-25T03:21:06.196Z,4.90
2019-04-25T03:27:07.424Z,3.40
2019-04-25T03:33:13.851Z,4.15
2019-04-25T03:39:16.529Z,4.97
2019-04-25T03:45:19.262Z,3.17
2019-04-25T03:51:23.855Z,4.10
2019-04-25T03:57:26.476Z,5.45
2019-04-25T04:03:28.890Z,4.90
2019-04-25T04:09:33.835Z,5.33
2019-04-25T04:15:40.896Z,5.42
2019-04-25T04:21:56.027Z,8.85
2019-04-25T04:28:04.075Z,5.97
2019-04-25T04:34:04.469Z,9.55
2019-04-25T04:40:07.910Z,6.90
2019-04-25T04:46:17.187Z,5.08
2019-04-25T04:52:18.931Z,6.47
2019-04-25T04:58:21.092Z,4.55
2019-04-25T05:04:34.967Z,6.25
2019-04-25T05:10:37.326Z,6.30
2019-04-25T05:16:39.802Z,4.50
2019-04-25T05:22:42.626Z,7.53
2019-04-25T05:28:45.166Z,6.62
2019-04-25T05:34:49.400Z,6.83
2019-04-25T05:40:56.705Z,4.83
2019-04-25T05:46:59.188Z,5.65
2019-04-25T05:53:04.308Z,6.58
2019-04-25T05:59:06.939Z,5.08
2019-04-25T06:05:09.358Z,5.30
2019-04-25T06:11:17.908Z,3.60
2019-04-25T06:17:34.384Z,10.38
2019-04-25T06:23:46.061Z,6.53
2019-04-25T06:29:58.062Z,4.90
2019-04-25T06:35:58.032Z,5.35
2019-04-25T06:42:01.577Z,7.92
2019-04-25T06:48:11.643Z,4.83
2019-04-25T06:54:14.025Z,7.92
2019-04-25T07:00:19.000Z,8.00
2019-04-25T07:06:25.249Z,5.53
2019-04-25T07:12:31.227Z,4.80
2019-04-25T07:18:35.882Z,10.72
2019-04-25T07:24:37.141Z,6.85
2019-04-25T07:30:54.947Z,7.12
2019-04-25T07:36:58.153Z,7.70
2019-04-25T07:43:01.568Z,9.65
2019-04-25T07:49:04.370Z,10.43
2019-04-25T07:55:07.123Z,7.30
2019-04-25T08:01:10.944Z,8.60
2019-04-25T08:07:14.247Z,9.75
2019-04-25T08:13:16.964Z,11.03
2019-04-25T08:19:21.516Z,17.27
2019-04-25T08:25:24.097Z,6.20
2019-04-25T08:31:26.475Z,7.47
2019-04-25T08:37:29.564Z,7.55
2019-04-25T08:43:36.338Z,6.67
2019-04-25T08:49:40.112Z,7.12
2019-04-25T08:55:50.204Z,7.40
2019-04-25T09:02:00.441Z,8.78
2019-04-25T09:08:04.679Z,9.93
2019-04-25T09:14:08.230Z,3.50
2019-04-25T09:20:15.155Z,6.83
2019-04-25T09:26:19.871Z,3.92
2019-04-25T09:32:23.860Z,6.47
2019-04-25T09:38:26.815Z,5.15
2019-04-25T09:44:48.019Z,2.80
2019-04-25T09:50:56.516Z,4.03
2019-04-25T09:57:11.473Z,4.17
2019-04-25T10:03:19.149Z,2.95
2019-04-25T10:09:33.738Z,4.60
2019-04-25T10:15:54.593Z,6.53
2019-04-25T10:21:57.859Z,2.15
2019-04-25T10:28:04.408Z,2.77
2019-04-25T10:34:08.991Z,2.20
2019-04-25T10:40:13.407Z,2.80
2019-04-25T10:46:16.678Z,9.25
2019-04-25T10:52:23.363Z,1.85
2019-04-25T10:58:28.075Z,1.40
2019-04-25T11:04:44.580Z,1.50
2019-04-25T11:10:49.875Z,2.37
2019-04-25T11:16:53.490Z,3.60
2019-04-25T11:22:57.145Z,3.52
2019-04-25T11:28:59.577Z,3.00
2019-04-25T11:35:04.872Z,2.22
2019-04-25T11:41:09.707Z,2.10
2019-04-25T11:47:14.459Z,3.15
2019-04-25T11:53:17.174Z,6.15
2019-04-25T11:59:23.538Z,2.65
2019-04-25T12:05:26.408Z,1.67
2019-04-25T12:11:29.019Z,2.65
2019-04-25T12:17:31.767Z,1.22
2019-04-25T12:23:34.196Z,2.75
2019-04-25T12:29:38.874Z,2.90
2019-04-25T12:35:43.544Z,4.28
2019-04-25T12:41:48.089Z,1.50
2019-04-25T12:47:57.995Z,4.25
2019-04-25T12:54:06.837Z,2.35
2019-04-25T13:00:14.147Z,2.50
2019-04-25T13:06:17.326Z,2.15
2019-04-25T13:12:23.382Z,5.85
2019-04-25T13:18:33.376Z,3.08
2019-04-25T13:24:41.300Z,2.25
2019-04-25T13:30:59.982Z,3.37
2019-04-25T13:36:58.152Z,6.22
2019-04-25T13:43:07.685Z,3.10
2019-04-25T13:49:09.862Z,3.12
2019-04-25T13:55:21.324Z,3.22
2019-04-25T14:01:33.847Z,6.90
2019-04-25T14:07:38.268Z,3.67
2019-04-25T14:14:01.987Z,3.95
2019-04-25T14:20:23.353Z,4.17
2019-04-25T14:26:51.421Z,5.15
2019-04-25T14:32:55.842Z,4.55
2019-04-25T14:39:00.134Z,4.42
2019-04-25T14:45:04.999Z,6.33
2019-04-25T14:51:14.836Z,3.80
2019-04-25T14:57:22.937Z,7.00
2019-04-25T15:03:33.043Z,16.35
2019-04-25T15:09:36.357Z,5.20
2019-04-25T15:15:40.157Z,5.92
2019-04-25T15:21:43.728Z,8.18
2019-04-25T15:27:48.453Z,6.67
2019-04-25T15:33:52.673Z,9.75
2019-04-25T15:39:57.222Z,9.70
2019-04-25T15:46:05.319Z,6.50
2019-04-25T15:52:13.142Z,6.17
2019-04-25T15:58:15.714Z,7.55
2019-04-25T16:04:20.477Z,13.18
2019-04-25T16:10:23.039Z,12.75
2019-04-25T16:16:26.748Z,6.58
2019-04-25T16:22:30.220Z,7.30
2019-04-25T16:28:32.529Z,10.48
2019-04-25T16:34:34.889Z,10.25
2019-04-25T16:40:37.478Z,7.33
2019-04-25T16:46:40.481Z,9.58
2019-04-25T16:52:42.805Z,7.53
2019-04-25T16:58:45.506Z,14.00
2019-04-25T17:04:48.020Z,11.43
2019-04-25T17:10:50.477Z,9.65
2019-04-25T17:16:54.718Z,10.18
2019-04-25T17:22:59.268Z,4.40
2019-04-25T17:29:03.410Z,9.55
2019-04-25T17:35:08.055Z,10.45
2019-04-25T17:41:10.595Z,7.83
2019-04-25T17:47:13.897Z,11.73
2019-04-25T17:53:18.899Z,4.75
2019-04-25T17:59:21.679Z,6.30
2019-04-25T18:05:26.706Z,6.30
2019-04-25T18:11:30.498Z,8.85
2019-04-25T18:17:33.938Z,7.78
2019-04-25T18:23:56.135Z,7.85
2019-04-25T18:30:00.824Z,10.28
2019-04-25T18:36:07.146Z,8.95
2019-04-25T18:42:11.192Z,15.98
2019-04-25T18:48:13.455Z,10.98
2019-04-25T18:54:34.383Z,6.90
2019-04-25T19:00:50.831Z,11.25
2019-04-25T19:06:58.040Z,5.10
2019-04-25T19:12:57.801Z,10.63
2019-04-25T19:19:00.007Z,7.05
2019-04-25T19:25:02.459Z,7.92
2019-04-25T19:31:04.780Z,8.68
2019-04-25T19:37:06.967Z,8.48
2019-04-25T19:43:17.564Z,8.10
2019-04-25T19:49:19.947Z,6.60
2019-04-25T19:55:22.142Z,8.95
2019-04-25T20:01:24.505Z,8.40
2019-04-25T20:07:28.712Z,5.60
2019-04-25T20:13:30.985Z,10.38
2019-04-25T20:19:33.335Z,8.68
2019-04-25T20:25:35.586Z,4.53
2019-04-25T20:31:37.761Z,9.08
2019-04-25T20:37:39.975Z,6.50
2019-04-25T20:43:42.285Z,6.67
2019-04-25T20:49:44.457Z,5.80
2019-04-25T20:55:47.503Z,6.90
2019-04-25T21:01:50.318Z,7.65
2019-04-25T21:07:53.651Z,6.05
2019-04-25T21:14:01.294Z,7.83
2019-04-25T21:20:06.349Z,8.58
2019-04-25T21:26:08.666Z,9.10
2019-04-25T21:32:10.969Z,12.98
2019-04-25T21:38:15.248Z,13.78
2019-04-25T21:44:17.734Z,8.90
2019-04-25T21:50:20.060Z,10.00
2019-04-25T21:56:22.763Z,15.32
2019-04-25T22:02:25.355Z,10.65
2019-04-25T22:08:30.956Z,13.30
2019-04-25T22:14:33.128Z,19.50
2019-04-25T22:20:35.478Z,11.83
2019-04-25T22:26:38.154Z,12.05
2019-04-25T22:32:48.771Z,14.28
2019-04-25T22:39:09.474Z,11.75
2019-04-25T22:45:13.617Z,15.38
2019-04-25T22:51:16.682Z,15.90
2019-04-25T22:57:18.906Z,10.48
2019-04-25T23:03:25.871Z,11.55
2019-04-25T23:09:30.048Z,10.30
2019-04-25T23:15:32.516Z,9.85
2019-04-25T23:21:34.810Z,8.80
2019-04-25T23:27:38.964Z,9.03
2019-04-25T23:33:41.066Z,8.28
2019-04-25T23:39:43.795Z,5.62
2019-04-25T23:45:45.898Z,6.60
2019-04-25T23:51:48.392Z,6.97
2019-04-25T23:57:50.494Z,7.75
